sensor_id;sensor_type;location;lat;lon;timestamp;pressure;altitude;pressure_sealevel;temperature;humidity
72061;BME280;59925;52.136;5.420;2022-09-25T00:00:47;101815.09;;;8.64;90.76
72061;BME280;59925;52.136;5.420;2022-09-25T00:03:15;101815.56;;;8.61;90.63
72061;BME280;59925;52.136;5.420;2022-09-25T00:05:44;101818.47;;;8.59;90.83
72061;BME280;59925;52.136;5.420;2022-09-25T00:08:15;101818.72;;;8.58;90.90
72061;BME280;59925;52.136;5.420;2022-09-25T00:10:47;101816.50;;;8.55;90.69
72061;BME280;59925;52.136;5.420;2022-09-25T00:13:15;101826.03;;;8.51;90.56
72061;BME280;59925;52.136;5.420;2022-09-25T00:18:13;101829.00;;;8.42;90.63
72061;BME280;59925;52.136;5.420;2022-09-25T00:20:40;101826.56;;;8.41;90.49
72061;BME280;59925;52.136;5.420;2022-09-25T00:23:06;101830.28;;;8.40;90.57
72061;BME280;59925;52.136;5.420;2022-09-25T00:25:33;101832.38;;;8.38;90.33
72061;BME280;59925;52.136;5.420;2022-09-25T00:28:00;101827.25;;;8.36;90.40
72061;BME280;59925;52.136;5.420;2022-09-25T00:30:26;101830.16;;;8.35;90.35
72061;BME280;59925;52.136;5.420;2022-09-25T00:32:53;101836.53;;;8.34;90.47
72061;BME280;59925;52.136;5.420;2022-09-25T00:35:19;101834.91;;;8.33;90.48
72061;BME280;59925;52.136;5.420;2022-09-25T00:37:45;101827.13;;;8.31;90.33
72061;BME280;59925;52.136;5.420;2022-09-25T00:40:12;101833.28;;;8.32;90.71
72061;BME280;59925;52.136;5.420;2022-09-25T00:42:38;101837.44;;;8.27;90.73
72061;BME280;59925;52.136;5.420;2022-09-25T00:45:17;101831.06;;;8.28;91.14
72061;BME280;59925;52.136;5.420;2022-09-25T00:47:59;101823.63;;;8.31;91.08
72061;BME280;59925;52.136;5.420;2022-09-25T00:50:49;101828.19;;;8.30;91.05
72061;BME280;59925;52.136;5.420;2022-09-25T00:53:24;101831.06;;;8.28;91.67
72061;BME280;59925;52.136;5.420;2022-09-25T00:55:54;101835.84;;;8.26;91.59
72061;BME280;59925;52.136;5.420;2022-09-25T00:58:23;101839.06;;;8.28;91.79
72061;BME280;59925;52.136;5.420;2022-09-25T01:00:52;101831.44;;;8.32;92.00
72061;BME280;59925;52.136;5.420;2022-09-25T01:03:19;101832.25;;;8.33;92.24
72061;BME280;59925;52.136;5.420;2022-09-25T01:05:47;101824.47;;;8.31;92.07
72061;BME280;59925;52.136;5.420;2022-09-25T01:08:20;101823.63;;;8.31;92.30
72061;BME280;59925;52.136;5.420;2022-09-25T01:10:48;101825.50;;;8.30;92.28
72061;BME280;59925;52.136;5.420;2022-09-25T01:13:15;101831.06;;;8.28;92.39
72061;BME280;59925;52.136;5.420;2022-09-25T01:15:57;101833.72;;;8.28;92.50
72061;BME280;59925;52.136;5.420;2022-09-25T01:18:46;101822.25;;;8.28;92.46
72061;BME280;59925;52.136;5.420;2022-09-25T01:21:23;101825.50;;;8.30;92.63
72061;BME280;59925;52.136;5.420;2022-09-25T01:24:33;101828.38;;;8.28;92.75
72061;BME280;59925;52.136;5.420;2022-09-25T01:35:12;101827.25;;;8.24;92.83
72061;BME280;59925;52.136;5.420;2022-09-25T01:37:52;101831.16;;;8.22;92.64
72061;BME280;59925;52.136;5.420;2022-09-25T01:40:30;101826.84;;;8.21;92.75
72061;BME280;59925;52.136;5.420;2022-09-25T01:45:52;101825.72;;;8.17;92.71
72061;BME280;59925;52.136;5.420;2022-09-25T01:48:25;101824.28;;;8.14;92.57
72061;BME280;59925;52.136;5.420;2022-09-25T01:50:57;101823.72;;;8.12;92.44
72061;BME280;59925;52.136;5.420;2022-09-25T01:53:30;101819.44;;;8.11;92.42
72061;BME280;59925;52.136;5.420;2022-09-25T01:56:05;101830.31;;;8.09;92.35
72061;BME280;59925;52.136;5.420;2022-09-25T01:59:04;101820.91;;;8.07;92.32
72061;BME280;59925;52.136;5.420;2022-09-25T02:01:29;101820.56;;;8.03;92.39
72061;BME280;59925;52.136;5.420;2022-09-25T02:04:01;101821.81;;;8.01;92.28
72061;BME280;59925;52.136;5.420;2022-09-25T02:06:31;101823.34;;;7.96;92.20
72061;BME280;59925;52.136;5.420;2022-09-25T02:09:05;101817.41;;;7.94;92.19
72061;BME280;59925;52.136;5.420;2022-09-25T02:11:42;101815.53;;;7.95;92.08
72061;BME280;59925;52.136;5.420;2022-09-25T02:14:18;101825.41;;;7.94;91.90
72061;BME280;59925;52.136;5.420;2022-09-25T02:16:50;101821.94;;;7.94;92.10
72061;BME280;59925;52.136;5.420;2022-09-25T02:19:18;101817.84;;;7.91;92.26
72061;BME280;59925;52.136;5.420;2022-09-25T02:22:08;101826.69;;;7.92;92.13
72061;BME280;59925;52.136;5.420;2022-09-25T02:24:47;101830.59;;;7.89;92.27
72061;BME280;59925;52.136;5.420;2022-09-25T02:27:21;101823.63;;;7.88;92.08
72061;BME280;59925;52.136;5.420;2022-09-25T02:29:47;101826.53;;;7.87;92.24
72061;BME280;59925;52.136;5.420;2022-09-25T02:32:16;101826.53;;;7.87;92.32
72061;BME280;59925;52.136;5.420;2022-09-25T02:34:44;101826.09;;;7.90;92.47
72061;BME280;59925;52.136;5.420;2022-09-25T02:37:15;101827.94;;;7.89;92.68
72061;BME280;59925;52.136;5.420;2022-09-25T02:39:46;101830.84;;;7.88;92.42
72061;BME280;59925;52.136;5.420;2022-09-25T02:48:22;101824.56;;;7.82;92.50
72061;BME280;59925;52.136;5.420;2022-09-25T02:51:13;101820.25;;;7.81;92.60
72061;BME280;59925;52.136;5.420;2022-09-25T02:53:57;101820.09;;;7.76;92.41
72061;BME280;59925;52.136;5.420;2022-09-25T02:56:34;101814.22;;;7.74;92.46
72061;BME280;59925;52.136;5.420;2022-09-25T02:59:06;101806.41;;;7.72;92.50
72061;BME280;59925;52.136;5.420;2022-09-25T03:01:36;101814.84;;;7.69;92.30
72061;BME280;59925;52.136;5.420;2022-09-25T03:04:05;101816.38;;;7.65;92.40
72061;BME280;59925;52.136;5.420;2022-09-25T03:06:32;101816.38;;;7.65;92.11
72061;BME280;59925;52.136;5.420;2022-09-25T03:08:59;101819.47;;;7.62;92.26
72061;BME280;59925;52.136;5.420;2022-09-25T03:11:27;101817.84;;;7.61;91.99
72061;BME280;59925;52.136;5.420;2022-09-25T03:14:03;101819.91;;;7.59;92.03
72061;BME280;59925;52.136;5.420;2022-09-25T03:19:06;101820.84;;;7.53;92.14
72061;BME280;59925;52.136;5.420;2022-09-25T03:21:32;101823.72;;;7.51;92.07
72061;BME280;59925;52.136;5.420;2022-09-25T03:23:59;101824.16;;;7.48;92.03
72061;BME280;59925;52.136;5.420;2022-09-25T03:26:26;101821.47;;;7.48;92.04
72061;BME280;59925;52.136;5.420;2022-09-25T03:28:55;101815.94;;;7.49;92.21
72061;BME280;59925;52.136;5.420;2022-09-25T03:31:22;101813.28;;;7.49;92.28
72061;BME280;59925;52.136;5.420;2022-09-25T03:33:48;101823.94;;;7.49;92.53
72061;BME280;59925;52.136;5.420;2022-09-25T03:36:20;101825.78;;;7.49;92.46
72061;BME280;59925;52.136;5.420;2022-09-25T03:38:49;101819.06;;;7.46;92.48
72061;BME280;59925;52.136;5.420;2022-09-25T03:41:18;101814.31;;;7.48;92.55
72061;BME280;59925;52.136;5.420;2022-09-25T03:43:48;101813.28;;;7.49;92.69
72061;BME280;59925;52.136;5.420;2022-09-25T03:46:21;101819.06;;;7.46;92.76
72061;BME280;59925;52.136;5.420;2022-09-25T03:48:48;101818.44;;;7.44;92.75
72061;BME280;59925;52.136;5.420;2022-09-25T03:51:15;101823.78;;;7.44;92.81
72061;BME280;59925;52.136;5.420;2022-09-25T03:53:41;101802.69;;;7.43;92.72
72061;BME280;59925;52.136;5.420;2022-09-25T03:56:18;101803.28;;;7.45;92.73
72061;BME280;59925;52.136;5.420;2022-09-25T03:58:46;101811.50;;;7.43;92.90
72061;BME280;59925;52.136;5.420;2022-09-25T04:01:14;101812.31;;;7.44;92.81
72061;BME280;59925;52.136;5.420;2022-09-25T04:03:41;101812.53;;;7.42;93.01
72061;BME280;59925;52.136;5.420;2022-09-25T04:06:10;101817.28;;;7.40;93.16
72061;BME280;59925;52.136;5.420;2022-09-25T04:08:37;101816.91;;;7.36;92.96
72061;BME280;59925;52.136;5.420;2022-09-25T04:11:04;101812.84;;;7.34;93.22
72061;BME280;59925;52.136;5.420;2022-09-25T04:13:33;101806.91;;;7.32;93.07
72061;BME280;59925;52.136;5.420;2022-09-25T04:16:03;101807.94;;;7.31;92.90
72061;BME280;59925;52.136;5.420;2022-09-25T04:18:30;101809.13;;;7.35;93.04
72061;BME280;59925;52.136;5.420;2022-09-25T04:21:02;101809.72;;;7.37;93.19
72061;BME280;59925;52.136;5.420;2022-09-25T04:23:30;101811.72;;;7.42;93.17
72061;BME280;59925;52.136;5.420;2022-09-25T04:25:57;101813.34;;;7.43;93.31
72061;BME280;59925;52.136;5.420;2022-09-25T04:28:23;101805.94;;;7.45;93.52
72061;BME280;59925;52.136;5.420;2022-09-25T04:30:50;101803.88;;;7.47;93.68
72061;BME280;59925;52.136;5.420;2022-09-25T04:33:17;101809.56;;;7.50;93.68
72061;BME280;59925;52.136;5.420;2022-09-25T04:36:03;101810.97;;;7.53;93.79
72061;BME280;59925;52.136;5.420;2022-09-25T04:38:29;101805.63;;;7.53;93.84
72061;BME280;59925;52.136;5.420;2022-09-25T04:40:58;101805.03;;;7.51;93.89
72061;BME280;59925;52.136;5.420;2022-09-25T04:43:29;101804.44;;;7.49;94.00
72061;BME280;59925;52.136;5.420;2022-09-25T04:46:00;101811.63;;;7.48;93.97
72061;BME280;59925;52.136;5.420;2022-09-25T04:48:27;101805.72;;;7.46;93.97
72061;BME280;59925;52.136;5.420;2022-09-25T04:50:54;101798.75;;;7.45;94.03
72061;BME280;59925;52.136;5.420;2022-09-25T04:53:21;101798.16;;;7.43;93.99
72061;BME280;59925;52.136;5.420;2022-09-25T04:55:48;101795.72;;;7.42;94.03
72061;BME280;59925;52.136;5.420;2022-09-25T04:58:14;101799.41;;;7.41;93.91
72061;BME280;59925;52.136;5.420;2022-09-25T05:00:40;101805.19;;;7.38;93.78
72061;BME280;59925;52.136;5.420;2022-09-25T05:03:07;101797.63;;;7.34;94.01
72061;BME280;59925;52.136;5.420;2022-09-25T05:05:34;101798.69;;;7.33;93.84
72061;BME280;59925;52.136;5.420;2022-09-25T05:08:02;101804.25;;;7.32;93.70
72061;BME280;59925;52.136;5.420;2022-09-25T05:10:32;101803.19;;;7.33;93.73
72061;BME280;59925;52.136;5.420;2022-09-25T05:13:05;101798.31;;;7.30;93.67
72061;BME280;59925;52.136;5.420;2022-09-25T05:15:34;101800.41;;;7.28;93.69
72061;BME280;59925;52.136;5.420;2022-09-25T05:18:06;101804.13;;;7.27;93.46
72061;BME280;59925;52.136;5.420;2022-09-25T05:20:36;101801.66;;;7.25;93.50
72061;BME280;59925;52.136;5.420;2022-09-25T05:23:04;101801.06;;;7.23;93.39
72061;BME280;59925;52.136;5.420;2022-09-25T05:25:30;101805.59;;;7.23;93.32
72061;BME280;59925;52.136;5.420;2022-09-25T05:27:58;101801.28;;;7.21;93.34
72061;BME280;59925;52.136;5.420;2022-09-25T05:30:27;101796.19;;;7.20;93.44
72061;BME280;59925;52.136;5.420;2022-09-25T05:32:54;101800.69;;;7.19;93.36
72061;BME280;59925;52.136;5.420;2022-09-25T05:35:24;101797.44;;;7.17;93.24
72061;BME280;59925;52.136;5.420;2022-09-25T05:37:51;101805.44;;;7.17;93.31
72061;BME280;59925;52.136;5.420;2022-09-25T05:40:18;101804.63;;;7.17;93.27
72061;BME280;59925;52.136;5.420;2022-09-25T05:42:46;101800.09;;;7.17;93.11
72061;BME280;59925;52.136;5.420;2022-09-25T05:45:14;101805.44;;;7.17;92.95
72061;BME280;59925;52.136;5.420;2022-09-25T05:47:41;101806.25;;;7.18;92.95
72061;BME280;59925;52.136;5.420;2022-09-25T05:50:11;101802.56;;;7.19;93.13
72061;BME280;59925;52.136;5.420;2022-09-25T05:52:39;101802.09;;;7.22;92.89
72061;BME280;59925;52.136;5.420;2022-09-25T05:55:06;101798.63;;;7.21;93.02
72061;BME280;59925;52.136;5.420;2022-09-25T05:57:34;101806.19;;;7.25;92.85
72061;BME280;59925;52.136;5.420;2022-09-25T06:00:04;101807.34;;;7.29;93.16
72061;BME280;59925;52.136;5.420;2022-09-25T06:02:31;101807.75;;;7.32;92.99
72061;BME280;59925;52.136;5.420;2022-09-25T06:04:57;101812.03;;;7.33;92.82
72061;BME280;59925;52.136;5.420;2022-09-25T06:07:23;101804.41;;;7.37;92.99
72061;BME280;59925;52.136;5.420;2022-09-25T06:09:50;101797.00;;;7.39;93.03
72061;BME280;59925;52.136;5.420;2022-09-25T06:12:16;101792.00;;;7.43;92.90
72061;BME280;59925;52.136;5.420;2022-09-25T06:14:43;101794.00;;;7.47;92.87
72061;BME280;59925;52.136;5.420;2022-09-25T06:17:11;101802.38;;;7.51;92.71
72061;BME280;59925;52.136;5.420;2022-09-25T06:19:37;101802.72;;;7.55;92.83
72061;BME280;59925;52.136;5.420;2022-09-25T06:22:04;101797.19;;;7.56;92.90
72061;BME280;59925;52.136;5.420;2022-09-25T06:24:30;101804.50;;;7.61;92.82
72061;BME280;59925;52.136;5.420;2022-09-25T06:26:57;101801.16;;;7.65;92.98
72061;BME280;59925;52.136;5.420;2022-09-25T06:29:23;101805.22;;;7.68;92.79
72061;BME280;59925;52.136;5.420;2022-09-25T06:31:51;101815.00;;;7.74;92.97
72061;BME280;59925;52.136;5.420;2022-09-25T06:34:17;101808.19;;;7.78;92.79
72061;BME280;59925;52.136;5.420;2022-09-25T06:36:44;101808.31;;;7.83;92.93
72061;BME280;59925;52.136;5.420;2022-09-25T06:39:10;101811.13;;;7.89;93.10
72061;BME280;59925;52.136;5.420;2022-09-25T06:41:37;101814.97;;;7.93;92.94
72061;BME280;59925;52.136;5.420;2022-09-25T06:44:03;101817.53;;;8.00;93.13
72061;BME280;59925;52.136;5.420;2022-09-25T06:46:30;101812.09;;;8.06;93.08
72061;BME280;59925;52.136;5.420;2022-09-25T06:48:56;101817.69;;;8.17;93.13
72061;BME280;59925;52.136;5.420;2022-09-25T06:51:24;101811.81;;;8.26;93.40
72061;BME280;59925;52.136;5.420;2022-09-25T06:53:51;101810.75;;;8.39;93.60
72061;BME280;59925;52.136;5.420;2022-09-25T06:56:19;101808.47;;;8.55;93.78
72061;BME280;59925;52.136;5.420;2022-09-25T06:58:45;101817.31;;;8.67;94.02
72061;BME280;59925;52.136;5.420;2022-09-25T07:01:12;101812.19;;;8.78;94.25
72061;BME280;59925;52.136;5.420;2022-09-25T07:03:39;101816.72;;;8.89;94.18
72061;BME280;59925;52.136;5.420;2022-09-25T07:06:20;101817.53;;;9.01;94.34
72061;BME280;59925;52.136;5.420;2022-09-25T07:08:48;101819.16;;;9.14;94.37
72061;BME280;59925;52.136;5.420;2022-09-25T07:11:21;101817.25;;;9.27;94.44
72061;BME280;59925;52.136;5.420;2022-09-25T07:13:48;101821.38;;;9.46;94.55
72061;BME280;59925;52.136;5.420;2022-09-25T07:16:30;101825.53;;;9.66;94.87
72061;BME280;59925;52.136;5.420;2022-09-25T07:18:58;101826.97;;;9.86;94.68
72061;BME280;59925;52.136;5.420;2022-09-25T07:21:29;101825.94;;;10.04;94.85
72061;BME280;59925;52.136;5.420;2022-09-25T07:23:57;101828.78;;;10.14;94.93
72061;BME280;59925;52.136;5.420;2022-09-25T07:26:27;101825.22;;;10.25;94.40
72061;BME280;59925;52.136;5.420;2022-09-25T07:28:59;101827.63;;;10.39;94.62
72061;BME280;59925;52.136;5.420;2022-09-25T07:31:29;101827.69;;;10.61;94.56
72061;BME280;59925;52.136;5.420;2022-09-25T07:34:00;101825.59;;;10.85;94.31
72061;BME280;59925;52.136;5.420;2022-09-25T07:36:30;101827.38;;;11.63;93.72
72061;BME280;59925;52.136;5.420;2022-09-25T07:38:57;101821.69;;;12.42;91.86
72061;BME280;59925;52.136;5.420;2022-09-25T07:41:24;101831.22;;;12.22;91.61
72061;BME280;59925;52.136;5.420;2022-09-25T07:43:51;101822.44;;;12.05;91.71
72061;BME280;59925;52.136;5.420;2022-09-25T07:46:40;101814.78;;;11.91;91.71
72061;BME280;59925;52.136;5.420;2022-09-25T07:49:08;101820.34;;;11.85;91.62
72061;BME280;59925;52.136;5.420;2022-09-25T07:51:35;101824.66;;;11.86;91.58
72061;BME280;59925;52.136;5.420;2022-09-25T07:54:01;101818.59;;;11.95;91.55
72061;BME280;59925;52.136;5.420;2022-09-25T07:56:27;101812.50;;;12.05;91.60
72061;BME280;59925;52.136;5.420;2022-09-25T07:58:54;101811.50;;;12.11;91.38
72061;BME280;59925;52.136;5.420;2022-09-25T08:01:20;101811.56;;;12.22;91.20
72061;BME280;59925;52.136;5.420;2022-09-25T08:03:47;101824.84;;;12.34;90.88
72061;BME280;59925;52.136;5.420;2022-09-25T08:06:14;101815.22;;;12.43;90.80
72061;BME280;59925;52.136;5.420;2022-09-25T08:08:41;101822.84;;;12.56;90.76
72061;BME280;59925;52.136;5.420;2022-09-25T08:11:11;101818.94;;;12.75;90.44
72061;BME280;59925;52.136;5.420;2022-09-25T08:13:39;101822.28;;;12.92;90.00
72061;BME280;59925;52.136;5.420;2022-09-25T08:16:11;101811.47;;;13.45;89.71
72061;BME280;59925;52.136;5.420;2022-09-25T08:18:39;101822.00;;;13.52;88.89
72061;BME280;59925;52.136;5.420;2022-09-25T08:21:11;101813.97;;;13.62;88.19
72061;BME280;59925;52.136;5.420;2022-09-25T08:23:40;101817.50;;;13.78;87.84
72061;BME280;59925;52.136;5.420;2022-09-25T08:26:13;101813.19;;;13.93;87.26
72061;BME280;59925;52.136;5.420;2022-09-25T08:28:39;101811.31;;;14.09;86.90
72061;BME280;59925;52.136;5.420;2022-09-25T08:31:05;101813.47;;;14.28;86.61
72061;BME280;59925;52.136;5.420;2022-09-25T08:33:33;101819.13;;;14.47;85.87
72061;BME280;59925;52.136;5.420;2022-09-25T08:36:02;101816.94;;;14.64;85.44
72061;BME280;59925;52.136;5.420;2022-09-25T08:38:29;101818.28;;;14.72;84.53
72061;BME280;59925;52.136;5.420;2022-09-25T08:41:02;101816.94;;;14.85;83.72
72061;BME280;59925;52.136;5.420;2022-09-25T08:43:31;101811.19;;;14.97;82.78
72061;BME280;59925;52.136;5.420;2022-09-25T08:46:00;101811.44;;;15.06;82.43
72061;BME280;59925;52.136;5.420;2022-09-25T08:48:55;101812.22;;;15.16;80.96
72061;BME280;59925;52.136;5.420;2022-09-25T08:51:36;101809.19;;;15.28;81.11
72061;BME280;59925;52.136;5.420;2022-09-25T08:54:04;101815.03;;;15.46;80.70
72061;BME280;59925;52.136;5.420;2022-09-25T08:56:33;101815.50;;;15.58;80.39
72061;BME280;59925;52.136;5.420;2022-09-25T08:59:21;101811.03;;;15.83;78.64
72061;BME280;59925;52.136;5.420;2022-09-25T09:01:52;101811.28;;;15.92;79.68
72061;BME280;59925;52.136;5.420;2022-09-25T09:06:59;101811.00;;;15.93;78.36
72061;BME280;59925;52.136;5.420;2022-09-25T09:09:54;101808.63;;;15.82;77.91
72061;BME280;59925;52.136;5.420;2022-09-25T09:12:34;101811.34;;;15.76;77.60
72061;BME280;59925;52.136;5.420;2022-09-25T09:18:26;101818.09;;;15.34;76.61
72061;BME280;59925;52.136;5.420;2022-09-25T09:20:54;101818.41;;;15.17;76.73
72061;BME280;59925;52.136;5.420;2022-09-25T09:23:23;101812.53;;;15.05;77.38
72061;BME280;59925;52.136;5.420;2022-09-25T09:26:01;101816.59;;;14.97;77.64
72061;BME280;59925;52.136;5.420;2022-09-25T09:31:50;101825.56;;;14.77;78.20
72061;BME280;59925;52.136;5.420;2022-09-25T09:34:50;101820.44;;;14.75;79.12
72061;BME280;59925;52.136;5.420;2022-09-25T09:40:31;101828.56;;;14.70;79.64
72061;BME280;59925;52.136;5.420;2022-09-25T09:46:20;101825.84;;;14.65;80.25
72061;BME280;59925;52.136;5.420;2022-09-25T09:49:12;101816.78;;;15.21;79.92
72061;BME280;59925;52.136;5.420;2022-09-25T09:51:46;101819.00;;;15.64;79.17
72061;BME280;59925;52.136;5.420;2022-09-25T09:54:25;101807.53;;;15.88;78.46
72061;BME280;59925;52.136;5.420;2022-09-25T09:57:02;101803.66;;;16.34;78.16
72061;BME280;59925;52.136;5.420;2022-09-25T09:59:45;101798.38;;;16.72;76.66
72061;BME280;59925;52.136;5.420;2022-09-25T10:02:25;101801.56;;;17.04;74.72
72061;BME280;59925;52.136;5.420;2022-09-25T10:04:56;101795.53;;;17.31;73.34
72061;BME280;59925;52.136;5.420;2022-09-25T10:07:25;101794.06;;;17.58;72.42
72061;BME280;59925;52.136;5.420;2022-09-25T10:09:54;101788.59;;;17.63;71.57
72061;BME280;59925;52.136;5.420;2022-09-25T10:12:27;101791.13;;;17.73;70.51
72061;BME280;59925;52.136;5.420;2022-09-25T10:14:57;101789.59;;;18.05;67.84
72061;BME280;59925;52.136;5.420;2022-09-25T10:17:27;101775.13;;;18.24;69.02
72061;BME280;59925;52.136;5.420;2022-09-25T10:19:57;101781.72;;;18.04;67.71
72061;BME280;59925;52.136;5.420;2022-09-25T10:22:26;101784.41;;;17.71;67.79
72061;BME280;59925;52.136;5.420;2022-09-25T10:24:58;101789.00;;;17.32;67.54
72061;BME280;59925;52.136;5.420;2022-09-25T10:35:40;101781.13;;;16.38;69.29
72061;BME280;59925;52.136;5.420;2022-09-25T10:41:12;101775.75;;;16.04;70.24
72061;BME280;59925;52.136;5.420;2022-09-25T10:43:58;101779.47;;;16.67;70.77
72061;BME280;59925;52.136;5.420;2022-09-25T10:46:29;101777.06;;;17.33;68.98
72061;BME280;59925;52.136;5.420;2022-09-25T10:49:21;101770.59;;;17.86;67.26
72061;BME280;59925;52.136;5.420;2022-09-25T10:52:09;101775.97;;;18.38;67.26
72061;BME280;59925;52.136;5.420;2022-09-25T10:54:36;101763.00;;;18.63;64.18
72061;BME280;59925;52.136;5.420;2022-09-25T10:57:30;101765.66;;;18.96;65.10
72061;BME280;59925;52.136;5.420;2022-09-25T11:00:08;101754.66;;;19.38;65.21
72061;BME280;59925;52.136;5.420;2022-09-25T11:02:45;101754.69;;;19.84;64.18
72061;BME280;59925;52.136;5.420;2022-09-25T11:05:17;101755.09;;;19.54;61.13
72061;BME280;59925;52.136;5.420;2022-09-25T11:07:53;101754.25;;;18.80;62.52
72061;BME280;59925;52.136;5.420;2022-09-25T11:10:24;101763.09;;;18.72;60.47
72061;BME280;59925;52.136;5.420;2022-09-25T11:12:52;101753.94;;;18.68;60.36
72061;BME280;59925;52.136;5.420;2022-09-25T11:15:21;101749.75;;;19.26;60.24
72061;BME280;59925;52.136;5.420;2022-09-25T11:17:51;101742.56;;;19.67;58.17
72061;BME280;59925;52.136;5.420;2022-09-25T11:25:33;101744.94;;;20.46;58.82
72061;BME280;59925;52.136;5.420;2022-09-25T11:28:47;101742.94;;;19.52;56.38
72061;BME280;59925;52.136;5.420;2022-09-25T11:37:18;101734.34;;;18.85;58.63
72061;BME280;59925;52.136;5.420;2022-09-25T11:39:50;101731.44;;;19.55;58.72
72061;BME280;59925;52.136;5.420;2022-09-25T11:42:46;101729.66;;;19.96;56.34
72061;BME280;59925;52.136;5.420;2022-09-25T11:45:19;101721.34;;;20.32;56.69
72061;BME280;59925;52.136;5.420;2022-09-25T11:47:56;101728.31;;;20.56;55.41
72061;BME280;59925;52.136;5.420;2022-09-25T11:50:33;101722.31;;;20.86;52.81
72061;BME280;59925;52.136;5.420;2022-09-25T11:56:01;101706.13;;;21.59;53.44
72061;BME280;59925;52.136;5.420;2022-09-25T11:58:57;101709.75;;;21.90;53.71
72061;BME280;59925;52.136;5.420;2022-09-25T12:01:53;101695.59;;;21.97;51.53
72061;BME280;59925;52.136;5.420;2022-09-25T12:07:33;101701.53;;;21.99;49.32
72061;BME280;59925;52.136;5.420;2022-09-25T12:10:28;101701.56;;;21.90;49.29
72061;BME280;59925;52.136;5.420;2022-09-25T12:24:51;101685.13;;;21.34;49.56
72061;BME280;59925;52.136;5.420;2022-09-25T12:27:47;101691.88;;;21.36;50.06
72061;BME280;59925;52.136;5.420;2022-09-25T12:30:18;101683.16;;;21.78;48.74
72061;BME280;59925;52.136;5.420;2022-09-25T12:35:56;101687.53;;;21.00;49.45
72061;BME280;59925;52.136;5.420;2022-09-25T12:38:57;101685.31;;;20.35;51.86
72061;BME280;59925;52.136;5.420;2022-09-25T12:41:33;101688.88;;;20.04;53.71
72061;BME280;59925;52.136;5.420;2022-09-25T12:44:16;101685.28;;;19.86;53.67
72061;BME280;59925;52.136;5.420;2022-09-25T12:46:54;101686.94;;;19.51;53.85
72061;BME280;59925;52.136;5.420;2022-09-25T12:52:24;101679.16;;;19.12;55.47
72061;BME280;59925;52.136;5.420;2022-09-25T12:57:34;101675.56;;;19.03;57.57
72061;BME280;59925;52.136;5.420;2022-09-25T13:08:31;101669.50;;;19.06;59.14
72061;BME280;59925;52.136;5.420;2022-09-25T13:11:07;101676.50;;;19.21;58.96
72061;BME280;59925;52.136;5.420;2022-09-25T13:13:40;101671.19;;;19.39;57.65
72061;BME280;59925;52.136;5.420;2022-09-25T13:16:10;101671.69;;;19.41;56.55
72061;BME280;59925;52.136;5.420;2022-09-25T13:18:45;101663.28;;;19.28;55.40
72061;BME280;59925;52.136;5.420;2022-09-25T13:21:25;101667.16;;;19.36;56.41
72061;BME280;59925;52.136;5.420;2022-09-25T13:23:54;101656.19;;;19.41;55.52
72061;BME280;59925;52.136;5.420;2022-09-25T13:26:23;101655.19;;;19.37;54.58
72061;BME280;59925;52.136;5.420;2022-09-25T13:28:55;101654.38;;;19.14;55.22
72061;BME280;59925;52.136;5.420;2022-09-25T13:31:28;101648.91;;;19.05;55.53
72061;BME280;59925;52.136;5.420;2022-09-25T13:34:12;101652.31;;;18.97;56.32
72061;BME280;59925;52.136;5.420;2022-09-25T13:36:53;101655.03;;;18.97;54.80
72061;BME280;59925;52.136;5.420;2022-09-25T13:42:22;101650.03;;;18.76;55.64
72061;BME280;59925;52.136;5.420;2022-09-25T13:47:47;101649.50;;;18.51;54.75
72061;BME280;59925;52.136;5.420;2022-09-25T13:50:19;101643.78;;;18.39;54.44
72061;BME280;59925;52.136;5.420;2022-09-25T14:02:54;101639.44;;;18.10;54.80
72061;BME280;59925;52.136;5.420;2022-09-25T14:05:29;101643.47;;;17.99;54.61
72061;BME280;59925;52.136;5.420;2022-09-25T14:08:09;101636.25;;;17.75;54.81
72061;BME280;59925;52.136;5.420;2022-09-25T14:10:43;101633.91;;;17.54;53.82
72061;BME280;59925;52.136;5.420;2022-09-25T14:13:12;101633.19;;;17.49;54.48
72061;BME280;59925;52.136;5.420;2022-09-25T14:15:40;101637.19;;;17.84;54.22
72061;BME280;59925;52.136;5.420;2022-09-25T14:18:15;101625.13;;;17.76;54.62
72061;BME280;59925;52.136;5.420;2022-09-25T14:20:44;101619.69;;;17.76;55.14
72061;BME280;59925;52.136;5.420;2022-09-25T14:23:25;101617.31;;;18.03;55.04
72061;BME280;59925;52.136;5.420;2022-09-25T14:26:05;101615.78;;;17.83;55.19
72061;BME280;59925;52.136;5.420;2022-09-25T14:28:41;101615.84;;;17.64;55.56
72061;BME280;59925;52.136;5.420;2022-09-25T14:37:00;101605.44;;;17.38;56.89
72061;BME280;59925;52.136;5.420;2022-09-25T14:39:49;101597.50;;;17.27;57.27
72061;BME280;59925;52.136;5.420;2022-09-25T14:42:44;101605.13;;;17.25;57.88
72061;BME280;59925;52.136;5.420;2022-09-25T14:47:57;101595.75;;;17.18;57.65
72061;BME280;59925;52.136;5.420;2022-09-25T14:50:30;101593.38;;;17.30;58.03
72061;BME280;59925;52.136;5.420;2022-09-25T14:53:02;101589.06;;;17.29;57.65
72061;BME280;59925;52.136;5.420;2022-09-25T14:55:38;101593.03;;;17.18;57.11
72061;BME280;59925;52.136;5.420;2022-09-25T14:58:08;101585.88;;;17.08;57.09
72061;BME280;59925;52.136;5.420;2022-09-25T15:00:43;101584.38;;;17.02;58.17
72061;BME280;59925;52.136;5.420;2022-09-25T15:03:13;101584.72;;;16.95;58.02
72061;BME280;59925;52.136;5.420;2022-09-25T15:05:45;101582.44;;;17.02;58.77
72061;BME280;59925;52.136;5.420;2022-09-25T15:08:30;101582.16;;;17.04;58.59
72061;BME280;59925;52.136;5.420;2022-09-25T15:11:10;101577.25;;;17.06;59.01
72061;BME280;59925;52.136;5.420;2022-09-25T15:13:37;101582.06;;;17.09;58.96
72061;BME280;59925;52.136;5.420;2022-09-25T15:16:05;101580.31;;;17.18;58.64
72061;BME280;59925;52.136;5.420;2022-09-25T15:18:53;101572.75;;;17.48;58.70
72061;BME280;59925;52.136;5.420;2022-09-25T15:21:25;101577.50;;;17.56;57.83